createdAt,value
2023-03-06T00:00:55.098Z,8.50
2023-03-06T00:01:55.017Z,8.80
2023-03-06T00:02:54.995Z,5.70
2023-03-06T00:03:55.039Z,7.80
2023-03-06T00:04:54.983Z,7.40
2023-03-06T00:05:55.055Z,7.80
2023-03-06T00:06:54.977Z,6.80
2023-03-06T00:07:54.956Z,8.70
2023-03-06T00:08:54.931Z,9.70
2023-03-06T00:09:54.918Z,8.80
2023-03-06T00:10:54.921Z,7.10
2023-03-06T00:11:54.932Z,8.50
2023-03-06T00:12:54.890Z,8.60
2023-03-06T00:13:54.882Z,9.80
2023-03-06T00:14:54.881Z,8.40
2023-03-06T00:15:54.888Z,10.80
2023-03-06T00:16:54.880Z,7.60
2023-03-06T00:17:54.838Z,9.40
2023-03-06T00:18:54.832Z,7.20
2023-03-06T00:19:54.817Z,6.60
2023-03-06T00:20:54.820Z,7.30
2023-03-06T00:21:54.850Z,9.50
2023-03-06T00:22:54.783Z,5.90
2023-03-06T00:23:54.782Z,7.80
2023-03-06T00:24:54.783Z,7.40
2023-03-06T00:26:01.293Z,7.60
2023-03-06T00:26:54.769Z,7.60
2023-03-06T00:27:54.744Z,7.50
2023-03-06T00:28:54.736Z,7.70
2023-03-06T00:29:54.721Z,7.40
2023-03-06T00:30:54.714Z,13.10
2023-03-06T00:31:54.724Z,8.80
2023-03-06T00:32:54.687Z,7.90
2023-03-06T00:33:54.671Z,8.50
2023-03-06T00:34:54.659Z,8.60
2023-03-06T00:35:54.684Z,9.40
2023-03-06T00:36:54.660Z,7.60
2023-03-06T00:37:54.639Z,12.00
2023-03-06T00:39:01.110Z,8.20
2023-03-06T00:40:01.459Z,9.40
2023-03-06T00:40:54.598Z,9.00
2023-03-06T00:42:02.409Z,9.80
2023-03-06T00:42:54.589Z,11.10
2023-03-06T00:43:54.578Z,10.00
2023-03-06T00:45:01.050Z,8.40
2023-03-06T00:46:01.198Z,9.90
2023-03-06T00:46:54.558Z,10.90
2023-03-06T00:47:54.528Z,8.90
2023-03-06T00:48:54.521Z,8.00
2023-03-06T00:49:54.527Z,9.00
2023-03-06T00:50:54.514Z,10.40
2023-03-06T00:51:54.553Z,9.40
2023-03-06T00:52:54.528Z,8.00
2023-03-06T00:53:54.474Z,8.10
2023-03-06T00:54:54.458Z,8.50
2023-03-06T00:55:54.468Z,7.70
2023-03-06T00:56:54.446Z,10.20
2023-03-06T00:57:54.450Z,8.90
2023-03-06T00:58:54.450Z,11.10
2023-03-06T00:59:54.408Z,7.20
2023-03-06T01:00:54.471Z,7.10
2023-03-06T01:01:54.485Z,7.50
2023-03-06T01:02:54.396Z,11.10
2023-03-06T01:03:54.369Z,7.40
2023-03-06T01:04:54.354Z,7.00
2023-03-06T01:05:54.347Z,7.50
2023-03-06T01:06:54.347Z,8.00
2023-03-06T01:07:54.353Z,8.90
2023-03-06T01:08:54.309Z,9.40
2023-03-06T01:09:54.303Z,9.00
2023-03-06T01:10:54.291Z,8.70
2023-03-06T01:11:54.299Z,10.70
2023-03-06T01:12:54.290Z,9.40
2023-03-06T01:13:54.263Z,8.10
2023-03-06T01:14:54.246Z,11.10
2023-03-06T01:15:54.238Z,9.30
2023-03-06T01:16:54.246Z,10.10
2023-03-06T01:17:54.244Z,11.50
2023-03-06T01:18:54.210Z,9.00
2023-03-06T01:19:54.204Z,9.50
2023-03-06T01:20:54.205Z,11.60
2023-03-06T01:21:54.183Z,10.90
2023-03-06T01:22:54.192Z,12.20
2023-03-06T01:23:54.159Z,14.50
2023-03-06T01:24:54.192Z,10.30
2023-03-06T01:25:54.142Z,9.30
2023-03-06T01:26:54.135Z,8.70
2023-03-06T01:27:54.146Z,7.80
2023-03-06T01:28:54.117Z,12.60
2023-03-06T01:29:54.093Z,11.00
2023-03-06T01:30:54.099Z,10.50
2023-03-06T01:31:54.154Z,16.80
2023-03-06T01:32:54.094Z,11.00
2023-03-06T01:33:54.058Z,8.00
2023-03-06T01:34:54.050Z,9.60
2023-03-06T01:35:54.083Z,11.10
2023-03-06T01:36:54.025Z,11.60
2023-03-06T01:37:54.038Z,9.40
2023-03-06T01:38:54.022Z,11.40
2023-03-06T01:39:54.001Z,14.60
2023-03-06T01:40:53.983Z,11.30
2023-03-06T01:41:54.013Z,13.80
2023-03-06T01:42:53.984Z,15.70
2023-03-06T01:43:53.960Z,14.30
2023-03-06T01:44:53.972Z,16.40
2023-03-06T01:45:53.988Z,12.80
2023-03-06T01:46:53.929Z,11.80
2023-03-06T01:47:53.940Z,16.00
2023-03-06T01:48:53.905Z,18.70
2023-03-06T01:49:53.909Z,13.00
2023-03-06T01:50:53.909Z,13.50
2023-03-06T01:51:53.896Z,15.70
2023-03-06T01:52:53.891Z,18.70
2023-03-06T01:53:53.860Z,18.00
2023-03-06T01:54:53.841Z,13.60
2023-03-06T01:55:53.849Z,14.10
2023-03-06T01:56:53.841Z,16.30
2023-03-06T01:57:53.862Z,17.70
2023-03-06T01:58:53.807Z,23.50
2023-03-06T01:59:53.803Z,23.60
2023-03-06T02:00:53.829Z,25.70
2023-03-06T02:01:53.780Z,13.20
2023-03-06T02:02:53.783Z,17.20
2023-03-06T02:03:53.775Z,17.80
2023-03-06T02:04:53.743Z,19.00
2023-03-06T02:05:53.741Z,17.10
2023-03-06T02:06:53.723Z,10.90
2023-03-06T02:07:53.752Z,11.50
2023-03-06T02:08:53.718Z,15.50
2023-03-06T02:09:53.706Z,19.60
2023-03-06T02:10:53.702Z,18.60
2023-03-06T02:11:53.679Z,20.10
2023-03-06T02:12:53.686Z,15.40
2023-03-06T02:13:53.714Z,15.10
2023-03-06T02:14:53.679Z,18.60
2023-03-06T02:15:53.652Z,15.90
2023-03-06T02:16:53.631Z,17.10
2023-03-06T02:17:53.651Z,21.90
2023-03-06T02:18:53.605Z,25.90
2023-03-06T02:19:53.608Z,22.40
2023-03-06T02:20:53.584Z,24.90
2023-03-06T02:21:53.571Z,23.60
2023-03-06T02:22:53.609Z,15.00
2023-03-06T02:23:53.558Z,17.10
2023-03-06T02:24:53.542Z,20.80
2023-03-06T02:25:53.554Z,28.40
2023-03-06T02:26:53.520Z,20.90
2023-03-06T02:27:53.543Z,23.90
2023-03-06T02:28:53.503Z,26.00
2023-03-06T02:29:53.509Z,19.80
2023-03-06T02:30:53.537Z,19.20
2023-03-06T02:31:53.480Z,17.50
2023-03-06T02:32:53.498Z,17.10
2023-03-06T02:33:53.454Z,23.10
2023-03-06T02:34:53.478Z,20.80
2023-03-06T02:35:53.479Z,20.80
2023-03-06T02:36:53.434Z,20.10
2023-03-06T02:37:53.418Z,19.70
2023-03-06T02:38:53.426Z,16.30
2023-03-06T02:39:53.410Z,11.90
2023-03-06T02:40:53.401Z,13.10
2023-03-06T02:41:53.376Z,15.80
2023-03-06T02:42:53.367Z,18.30
2023-03-06T02:43:53.393Z,17.60
2023-03-06T02:44:53.340Z,13.80
2023-03-06T02:45:53.361Z,11.90
2023-03-06T02:46:53.354Z,13.20
2023-03-06T02:47:53.331Z,10.70
2023-03-06T02:48:53.321Z,12.40
2023-03-06T02:49:53.308Z,11.80
2023-03-06T02:50:53.269Z,11.10
2023-03-06T02:51:53.282Z,16.30
2023-03-06T02:52:53.292Z,15.00
2023-03-06T02:53:53.276Z,10.90
2023-03-06T02:54:53.235Z,10.50
2023-03-06T02:55:53.257Z,11.10
2023-03-06T02:56:53.203Z,10.10
2023-03-06T02:57:53.236Z,8.40
2023-03-06T02:58:53.226Z,9.90
2023-03-06T02:59:53.198Z,8.90
2023-03-06T03:00:53.179Z,12.10
2023-03-06T03:01:53.246Z,10.50
2023-03-06T03:02:53.156Z,10.40
2023-03-06T03:03:53.178Z,8.50
2023-03-06T03:04:53.235Z,9.60
2023-03-06T03:05:53.131Z,8.70
2023-03-06T03:06:53.109Z,8.20
2023-03-06T03:07:53.115Z,10.50
2023-03-06T03:08:53.129Z,12.60
2023-03-06T03:09:53.078Z,10.90
2023-03-06T03:10:53.078Z,17.20
2023-03-06T03:11:53.069Z,9.90
2023-03-06T03:12:53.042Z,10.70
2023-03-06T03:13:53.082Z,10.80
2023-03-06T03:14:53.030Z,11.80
2023-03-06T03:15:53.052Z,13.00
2023-03-06T03:16:53.008Z,12.50
2023-03-06T03:17:53.003Z,12.70
2023-03-06T03:18:53.039Z,13.90
2023-03-06T03:19:52.987Z,12.20
2023-03-06T03:20:52.970Z,11.10
2023-03-06T03:21:52.962Z,9.60
2023-03-06T03:22:52.939Z,9.30
2023-03-06T03:23:52.975Z,11.40
2023-03-06T03:24:53.077Z,16.60
2023-03-06T03:25:52.923Z,11.00
2023-03-06T03:26:52.905Z,14.40
2023-03-06T03:27:52.908Z,15.70
2023-03-06T03:28:52.934Z,16.20
2023-03-06T03:29:52.878Z,16.20
2023-03-06T03:30:52.897Z,19.70
2023-03-06T03:31:52.888Z,14.20
2023-03-06T03:32:52.856Z,12.70
2023-03-06T03:33:52.864Z,12.70
2023-03-06T03:34:52.820Z,13.40
2023-03-06T03:35:52.859Z,17.30
2023-03-06T03:36:52.816Z,17.50
2023-03-06T03:37:52.793Z,16.50
2023-03-06T03:38:52.812Z,15.50
2023-03-06T03:39:52.771Z,14.00
2023-03-06T03:40:52.764Z,12.00
2023-03-06T03:41:52.759Z,15.90
2023-03-06T03:42:52.768Z,12.80
2023-03-06T03:43:52.777Z,14.40
2023-03-06T03:44:52.733Z,10.70
2023-03-06T03:45:52.716Z,9.50
2023-03-06T03:46:52.703Z,12.30
2023-03-06T03:47:52.691Z,15.60
2023-03-06T03:48:52.704Z,15.10
2023-03-06T03:49:52.673Z,15.20
2023-03-06T03:50:52.658Z,17.40
2023-03-06T03:51:52.669Z,11.20
2023-03-06T03:52:52.679Z,18.10
2023-03-06T03:53:52.677Z,18.20
2023-03-06T03:54:52.625Z,15.10
2023-03-06T03:55:52.615Z,12.20
2023-03-06T03:56:52.603Z,12.50
2023-03-06T03:57:52.604Z,16.50
2023-03-06T03:58:52.589Z,17.20
2023-03-06T03:59:52.606Z,16.30
2023-03-06T04:00:52.554Z,23.40
2023-03-06T04:01:52.628Z,27.80
2023-03-06T04:02:52.542Z,12.20
2023-03-06T04:03:52.527Z,16.00
2023-03-06T04:04:52.619Z,21.70
2023-03-06T04:05:52.500Z,17.40
2023-03-06T04:06:52.497Z,16.00
2023-03-06T04:07:52.520Z,17.50
2023-03-06T04:08:52.481Z,14.60
2023-03-06T04:09:52.492Z,17.50
2023-03-06T04:10:52.464Z,21.40
2023-03-06T04:11:52.445Z,23.40
2023-03-06T04:12:52.449Z,23.30
2023-03-06T04:13:52.440Z,20.30
2023-03-06T04:14:52.443Z,15.10
2023-03-06T04:15:52.467Z,17.00
2023-03-06T04:16:52.396Z,25.70
2023-03-06T04:17:52.378Z,36.50
2023-03-06T04:18:52.392Z,26.80
2023-03-06T04:19:52.399Z,16.90
2023-03-06T04:20:52.363Z,21.90
2023-03-06T04:21:52.341Z,28.30
2023-03-06T04:22:52.336Z,30.40
2023-03-06T04:23:52.319Z,30.30
2023-03-06T04:24:52.360Z,31.50
2023-03-06T04:25:52.301Z,44.10
2023-03-06T04:26:52.299Z,57.00
2023-03-06T04:27:52.293Z,43.90
2023-03-06T04:28:52.263Z,32.80
2023-03-06T04:29:52.275Z,24.90
2023-03-06T04:30:58.733Z,28.70
2023-03-06T04:31:58.730Z,40.40
2023-03-06T04:32:58.716Z,38.20
2023-03-06T04:33:59.723Z,30.30
2023-03-06T04:35:00.981Z,26.80
2023-03-06T04:35:52.248Z,27.00
2023-03-06T04:36:52.178Z,29.90
2023-03-06T04:37:52.185Z,32.90
2023-03-06T04:38:52.200Z,29.90
2023-03-06T04:39:52.191Z,27.20
2023-03-06T04:40:52.163Z,31.00
2023-03-06T04:41:52.141Z,37.70
2023-03-06T04:42:52.116Z,35.90
2023-03-06T04:43:52.114Z,35.70
2023-03-06T04:44:52.165Z,38.40
2023-03-06T04:45:52.204Z,27.50
2023-03-06T04:46:52.081Z,24.90
2023-03-06T04:47:52.072Z,27.10
2023-03-06T04:48:52.062Z,22.30
2023-03-06T04:49:52.080Z,20.90
2023-03-06T04:50:58.536Z,26.10
2023-03-06T04:51:58.545Z,23.60
2023-03-06T04:52:52.015Z,20.70
2023-03-06T04:53:52.013Z,18.30
2023-03-06T04:54:52.014Z,24.30
2023-03-06T04:55:51.993Z,25.80
2023-03-06T04:56:51.996Z,23.10
2023-03-06T04:57:51.975Z,21.20
2023-03-06T04:58:51.960Z,21.70
2023-03-06T04:59:52.028Z,12.30
2023-03-06T05:00:51.977Z,16.60
2023-03-06T05:01:52.012Z,13.50
2023-03-06T05:02:51.907Z,18.10
2023-03-06T05:03:51.909Z,18.90
2023-03-06T05:04:51.901Z,17.50
2023-03-06T05:05:51.899Z,14.90
2023-03-06T05:06:51.875Z,19.90
2023-03-06T05:07:51.879Z,21.70
2023-03-06T05:08:51.845Z,18.10
2023-03-06T05:09:51.849Z,14.80
2023-03-06T05:10:51.859Z,16.60
2023-03-06T05:11:51.817Z,17.10
2023-03-06T05:12:51.805Z,16.10
2023-03-06T05:13:51.796Z,12.80
2023-03-06T05:14:51.786Z,16.60
2023-03-06T05:15:51.857Z,20.10
2023-03-06T05:16:51.767Z,19.80
2023-03-06T05:17:51.758Z,17.10
2023-03-06T05:18:51.739Z,17.70
2023-03-06T05:19:51.733Z,22.20
2023-03-06T05:20:51.777Z,15.00
2023-03-06T05:21:51.725Z,13.00
2023-03-06T05:22:51.784Z,15.50
2023-03-06T05:23:51.689Z,14.90
2023-03-06T05:24:51.690Z,23.50
2023-03-06T05:25:51.686Z,18.60
2023-03-06T05:26:51.722Z,15.90
2023-03-06T05:27:51.654Z,11.30
2023-03-06T05:28:51.631Z,12.70
2023-03-06T05:29:51.637Z,17.30
2023-03-06T05:30:51.587Z,17.30
2023-03-06T05:31:51.718Z,15.20
2023-03-06T05:32:51.709Z,13.10
2023-03-06T05:33:51.611Z,16.70
2023-03-06T05:34:51.571Z,20.50
2023-03-06T05:35:51.647Z,16.00
2023-03-06T05:36:51.562Z,16.70
2023-03-06T05:37:51.548Z,12.20
2023-03-06T05:38:51.526Z,10.90
2023-03-06T05:39:51.546Z,12.60
2023-03-06T05:40:52.103Z,12.40
2023-03-06T05:41:51.527Z,10.10
2023-03-06T05:42:51.440Z,9.80
2023-03-06T05:43:51.484Z,9.70
2023-03-06T05:44:51.425Z,12.70
2023-03-06T05:45:51.476Z,14.90
2023-03-06T05:46:51.422Z,13.40
2023-03-06T05:47:51.396Z,11.10
2023-03-06T05:48:51.380Z,12.90
2023-03-06T05:49:51.378Z,14.80
2023-03-06T05:50:51.396Z,17.10
2023-03-06T05:51:51.663Z,11.50
2023-03-06T05:52:51.346Z,10.90
2023-03-06T05:53:51.325Z,13.10
2023-03-06T05:54:51.324Z,11.40
2023-03-06T05:55:51.322Z,13.10
2023-03-06T05:56:51.302Z,13.00
2023-03-06T05:57:51.305Z,12.80
2023-03-06T05:58:51.276Z,12.40
2023-03-06T05:59:51.298Z,14.00
2023-03-06T06:00:51.287Z,11.70
2023-03-06T06:01:51.260Z,13.70
2023-03-06T06:02:51.222Z,10.00
2023-03-06T06:03:51.230Z,12.70
2023-03-06T06:04:51.208Z,13.30
2023-03-06T06:05:51.193Z,10.90
2023-03-06T06:06:51.200Z,11.40
2023-03-06T06:07:51.185Z,12.80
2023-03-06T06:08:51.159Z,9.50
2023-03-06T06:09:51.164Z,14.60
2023-03-06T06:10:53.373Z,14.10
2023-03-06T06:11:51.159Z,11.20
2023-03-06T06:12:51.116Z,12.90
2023-03-06T06:13:51.119Z,11.00
2023-03-06T06:14:51.102Z,12.40
2023-03-06T06:15:51.128Z,11.80
2023-03-06T06:16:51.102Z,13.70
2023-03-06T06:17:51.082Z,14.20
2023-03-06T06:18:51.055Z,14.20
2023-03-06T06:19:51.095Z,13.10
2023-03-06T06:20:51.036Z,15.00
2023-03-06T06:21:51.056Z,13.50
2023-03-06T06:22:51.069Z,11.30
2023-03-06T06:23:51.005Z,14.00
2023-03-06T06:24:50.994Z,13.00
2023-03-06T06:25:52.023Z,15.50
2023-03-06T06:26:50.997Z,14.50
2023-03-06T06:27:50.968Z,14.60
2023-03-06T06:28:50.959Z,16.60
2023-03-06T06:29:50.962Z,13.20
2023-03-06T06:30:50.975Z,14.40
2023-03-06T06:31:50.964Z,15.90
2023-03-06T06:32:50.917Z,17.60
2023-03-06T06:33:50.908Z,17.20
2023-03-06T06:34:50.895Z,18.00
2023-03-06T06:35:50.983Z,15.00
2023-03-06T06:36:53.249Z,16.40
2023-03-06T06:37:50.870Z,19.40
2023-03-06T06:38:50.858Z,24.90
2023-03-06T06:39:50.862Z,17.30
2023-03-06T06:41:26.921Z,16.80
2023-03-06T06:42:09.708Z,16.10
2023-03-06T06:42:50.820Z,12.60
2023-03-06T06:43:50.818Z,15.70
2023-03-06T06:44:50.808Z,14.90
2023-03-06T06:45:50.831Z,12.90
2023-03-06T06:47:50.831Z,15.80
2023-03-06T06:48:50.753Z,15.80
2023-03-06T06:49:50.768Z,20.80
2023-03-06T06:50:50.770Z,19.10
2023-03-06T06:51:50.746Z,22.00
2023-03-06T06:52:50.746Z,14.20
2023-03-06T06:53:50.725Z,20.30
2023-03-06T06:54:50.691Z,25.00
2023-03-06T06:55:50.698Z,29.80
2023-03-06T06:56:50.705Z,21.80
2023-03-06T06:57:50.693Z,23.80
2023-03-06T06:58:50.638Z,29.60
2023-03-06T06:59:52.568Z,34.80
2023-03-06T07:00:50.648Z,42.90
2023-03-06T07:01:50.721Z,35.10
2023-03-06T07:02:50.653Z,25.90
2023-03-06T07:03:50.657Z,27.70
2023-03-06T07:05:03.107Z,31.80
2023-03-06T07:05:50.586Z,42.30
2023-03-06T07:06:50.584Z,29.30
2023-03-06T07:07:50.606Z,34.30
2023-03-06T07:08:50.568Z,35.20
2023-03-06T07:09:50.540Z,38.50
2023-03-06T07:10:50.516Z,44.90
2023-03-06T07:11:50.548Z,45.90
2023-03-06T07:12:50.527Z,49.90
2023-03-06T07:13:50.497Z,47.20
2023-03-06T07:14:50.505Z,30.60
2023-03-06T07:15:50.501Z,45.40
2023-03-06T07:16:50.468Z,50.50
2023-03-06T07:17:50.524Z,53.70
2023-03-06T07:18:50.437Z,43.50
2023-03-06T07:19:50.444Z,35.70
2023-03-06T07:20:50.413Z,36.30
2023-03-06T07:21:50.413Z,26.10
2023-03-06T07:22:51.946Z,26.80
2023-03-06T07:23:50.398Z,30.10
2023-03-06T07:24:50.379Z,38.70
2023-03-06T07:25:50.377Z,34.50
2023-03-06T07:26:50.357Z,34.90
2023-03-06T07:27:53.744Z,29.70
2023-03-06T07:28:52.896Z,40.50
2023-03-06T07:29:50.343Z,45.40
2023-03-06T07:30:50.353Z,38.50
2023-03-06T07:31:50.306Z,52.20
2023-03-06T07:32:50.318Z,75.50
2023-03-06T07:33:50.281Z,84.20
2023-03-06T07:34:50.275Z,30.90
2023-03-06T07:35:50.297Z,29.30
2023-03-06T07:36:50.250Z,31.10
2023-03-06T07:37:50.298Z,35.60
2023-03-06T07:38:50.252Z,45.20
2023-03-06T07:39:50.217Z,38.80
2023-03-06T07:40:50.210Z,49.90
2023-03-06T07:41:50.218Z,47.30
2023-03-06T07:42:50.221Z,71.50
2023-03-06T07:43:50.195Z,59.90
2023-03-06T07:44:50.171Z,63.50
2023-03-06T07:45:50.184Z,62.70
2023-03-06T07:46:50.203Z,48.90
2023-03-06T07:47:50.137Z,50.20
2023-03-06T07:48:50.156Z,67.30
2023-03-06T07:49:50.120Z,84.60
2023-03-06T07:50:50.104Z,66.50
2023-03-06T07:51:50.110Z,68.80
2023-03-06T07:52:50.086Z,44.70
2023-03-06T07:53:50.097Z,35.70
2023-03-06T07:54:50.071Z,59.70
2023-03-06T07:55:50.058Z,61.80
2023-03-06T07:56:50.050Z,55.30
2023-03-06T07:57:50.069Z,69.90
2023-03-06T07:58:50.056Z,89.70
2023-03-06T07:59:50.020Z,70.60
2023-03-06T08:00:50.033Z,55.40
2023-03-06T08:01:49.999Z,51.70
2023-03-06T08:02:50.072Z,46.40
2023-03-06T08:03:50.320Z,45.20
2023-03-06T08:04:49.968Z,33.80
2023-03-06T08:05:49.953Z,44.10
2023-03-06T08:06:49.971Z,66.40
2023-03-06T08:07:49.962Z,83.50
2023-03-06T08:08:50.000Z,86.80
2023-03-06T08:09:49.932Z,84.70
2023-03-06T08:10:49.898Z,86.60
2023-03-06T08:11:49.894Z,74.20
2023-03-06T08:12:49.879Z,81.20
2023-03-06T08:13:49.943Z,70.40
2023-03-06T08:14:49.852Z,74.40
2023-03-06T08:15:49.890Z,69.70
2023-03-06T08:16:49.851Z,69.00
2023-03-06T08:17:49.829Z,64.70
2023-03-06T08:18:49.838Z,84.90
2023-03-06T08:19:49.802Z,78.40
2023-03-06T08:20:49.797Z,52.20
2023-03-06T08:21:49.798Z,76.20
2023-03-06T08:22:57.280Z,82.80
2023-03-06T08:23:49.807Z,80.30
2023-03-06T08:24:49.750Z,81.60
2023-03-06T08:25:49.740Z,106.50
2023-03-06T08:26:49.751Z,96.40
2023-03-06T08:27:49.717Z,96.80
2023-03-06T08:28:49.759Z,93.70
2023-03-06T08:29:49.699Z,91.80
2023-03-06T08:30:49.694Z,99.20
2023-03-06T08:31:49.823Z,108.30
2023-03-06T08:32:49.674Z,101.60
2023-03-06T08:33:49.698Z,94.10
2023-03-06T08:34:49.669Z,86.10
2023-03-06T08:35:49.715Z,96.50
2023-03-06T08:36:49.648Z,96.10
2023-03-06T08:37:49.621Z,99.80
2023-03-06T08:38:49.638Z,98.50
2023-03-06T08:39:49.610Z,106.30
2023-03-06T08:40:49.628Z,116.70
2023-03-06T08:41:49.571Z,135.50
2023-03-06T08:42:49.583Z,133.20
2023-03-06T08:43:49.597Z,115.20
2023-03-06T08:44:49.557Z,119.60
2023-03-06T08:45:49.617Z,114.80
2023-03-06T08:46:49.537Z,122.00
2023-03-06T08:47:49.574Z,115.90
2023-03-06T08:48:49.519Z,111.00
2023-03-06T08:49:49.518Z,112.10
2023-03-06T08:50:49.497Z,116.50
2023-03-06T08:51:49.508Z,124.00
2023-03-06T08:52:49.466Z,131.40
2023-03-06T08:53:49.461Z,132.30
2023-03-06T08:54:49.475Z,136.50
2023-03-06T08:55:49.432Z,127.10
2023-03-06T08:56:49.425Z,103.80
2023-03-06T08:57:49.439Z,100.80
2023-03-06T08:58:49.392Z,112.70
2023-03-06T08:59:49.404Z,117.80
2023-03-06T09:00:49.479Z,112.10
2023-03-06T09:01:49.360Z,102.30
2023-03-06T09:02:49.376Z,123.90
2023-03-06T09:03:49.410Z,127.50
2023-03-06T09:04:49.374Z,120.90
2023-03-06T09:05:49.319Z,115.30
2023-03-06T09:06:49.332Z,98.90
2023-03-06T09:07:49.297Z,87.60
2023-03-06T09:08:49.316Z,115.50
2023-03-06T09:09:49.313Z,105.10
2023-03-06T09:10:49.317Z,108.90
2023-03-06T09:11:49.257Z,103.40
2023-03-06T09:12:52.001Z,112.50
2023-03-06T09:13:49.248Z,114.50
2023-03-06T09:14:58.030Z,128.40
2023-03-06T09:15:49.209Z,122.10
2023-03-06T09:16:49.295Z,117.20
2023-03-06T09:17:49.282Z,110.20
2023-03-06T09:18:49.191Z,84.70
2023-03-06T09:19:49.227Z,90.50
2023-03-06T09:20:49.159Z,103.50
2023-03-06T09:21:49.193Z,96.00
2023-03-06T09:22:49.162Z,94.40
2023-03-06T09:23:49.135Z,93.20
2023-03-06T09:24:49.153Z,78.50
2023-03-06T09:25:49.124Z,76.00
2023-03-06T09:26:51.422Z,61.30
2023-03-06T09:27:58.352Z,56.90
2023-03-06T09:28:49.107Z,54.10
2023-03-06T09:29:49.121Z,57.50
2023-03-06T09:30:49.105Z,68.90
2023-03-06T09:31:49.050Z,63.60
2023-03-06T09:32:49.049Z,67.80
2023-03-06T09:33:49.022Z,62.40
2023-03-06T09:34:49.052Z,61.70
2023-03-06T09:35:49.089Z,61.60
2023-03-06T09:36:56.631Z,67.50
2023-03-06T09:37:48.992Z,88.70
2023-03-06T09:38:48.980Z,83.60
2023-03-06T09:39:49.024Z,56.40
2023-03-06T09:40:48.960Z,61.70
2023-03-06T09:41:48.947Z,71.50
2023-03-06T09:42:48.946Z,80.40
2023-03-06T09:43:48.936Z,75.40
2023-03-06T09:44:48.937Z,87.20
2023-03-06T09:45:48.969Z,96.10
2023-03-06T09:46:48.894Z,95.60
2023-03-06T09:47:48.883Z,96.70
2023-03-06T09:48:48.898Z,82.30
2023-03-06T09:49:48.906Z,68.30
2023-03-06T09:50:48.884Z,59.50
2023-03-06T09:51:48.860Z,47.50
2023-03-06T09:52:48.850Z,51.30
2023-03-06T09:53:48.821Z,38.60
2023-03-06T09:54:48.846Z,44.80
2023-03-06T09:55:48.831Z,39.20
2023-03-06T09:56:48.802Z,45.10
2023-03-06T09:57:50.508Z,58.20
2023-03-06T09:58:48.804Z,57.20
2023-03-06T09:59:48.877Z,54.10
2023-03-06T10:00:48.763Z,47.80
2023-03-06T10:01:48.755Z,30.50
2023-03-06T10:02:48.835Z,40.90
2023-03-06T10:03:48.742Z,54.30
2023-03-06T10:04:48.800Z,55.30
2023-03-06T10:05:48.699Z,50.90
2023-03-06T10:06:48.687Z,48.30
2023-03-06T10:07:48.668Z,49.90
2023-03-06T10:08:48.681Z,55.10
2023-03-06T10:09:48.701Z,66.50
2023-03-06T10:10:48.670Z,60.50
2023-03-06T10:11:48.627Z,55.70
2023-03-06T10:12:48.639Z,47.40
2023-03-06T10:13:48.607Z,47.80
2023-03-06T10:14:49.444Z,45.50
2023-03-06T10:15:48.651Z,52.00
2023-03-06T10:16:48.594Z,47.30
2023-03-06T10:17:48.568Z,55.10
2023-03-06T10:18:48.574Z,49.60
2023-03-06T10:19:48.560Z,46.40
2023-03-06T10:20:48.580Z,35.60
2023-03-06T10:21:48.541Z,51.00
2023-03-06T10:23:00.613Z,50.30
2023-03-06T10:23:48.528Z,43.40
2023-03-06T10:24:48.505Z,42.30
2023-03-06T10:25:48.529Z,40.00
2023-03-06T10:26:48.563Z,36.40
2023-03-06T10:27:48.477Z,26.60
2023-03-06T10:28:48.495Z,25.70
2023-03-06T10:30:01.726Z,28.80
2023-03-06T10:30:48.498Z,37.90
2023-03-06T10:31:49.247Z,42.10
2023-03-06T10:32:49.496Z,42.90
2023-03-06T10:33:48.415Z,37.20
2023-03-06T10:34:48.401Z,14.00
2023-03-06T10:35:48.483Z,17.10
2023-03-06T10:36:48.391Z,18.80
2023-03-06T10:37:48.390Z,29.70
2023-03-06T10:38:48.395Z,44.50
2023-03-06T10:39:48.346Z,33.80
2023-03-06T10:40:48.368Z,36.00
2023-03-06T10:41:48.331Z,44.20
2023-03-06T10:42:52.090Z,46.20
2023-03-06T10:43:48.326Z,32.00
2023-03-06T10:44:48.325Z,33.30
2023-03-06T10:45:49.542Z,22.00
2023-03-06T10:46:48.333Z,40.50
2023-03-06T10:47:48.283Z,41.80
2023-03-06T10:48:48.256Z,43.00
2023-03-06T10:49:48.261Z,59.50
2023-03-06T10:50:48.265Z,66.10
2023-03-06T10:51:48.226Z,45.90
2023-03-06T10:52:48.225Z,52.10
2023-03-06T10:53:48.234Z,61.30
2023-03-06T10:54:48.255Z,63.00
2023-03-06T10:55:48.212Z,67.30
2023-03-06T10:56:48.198Z,67.50
2023-03-06T10:57:48.177Z,61.90
2023-03-06T10:58:48.193Z,46.20
2023-03-06T10:59:48.152Z,19.00
2023-03-06T11:00:48.168Z,10.10
2023-03-06T11:01:48.194Z,10.90
2023-03-06T11:02:48.134Z,8.80
2023-03-06T11:03:48.101Z,7.30
2023-03-06T11:04:48.201Z,8.00
2023-03-06T11:05:48.130Z,11.90
2023-03-06T11:06:48.093Z,10.10
2023-03-06T11:07:48.079Z,15.50
2023-03-06T11:08:48.062Z,17.00
2023-03-06T11:09:48.062Z,10.60
2023-03-06T11:10:48.087Z,7.70
2023-03-06T11:11:48.058Z,7.80
2023-03-06T11:12:48.055Z,9.30
2023-03-06T11:13:48.052Z,7.10
2023-03-06T11:14:48.140Z,7.00
2023-03-06T11:15:48.018Z,4.10
2023-03-06T11:16:48.055Z,3.90
2023-03-06T11:17:47.991Z,6.60
2023-03-06T11:18:47.955Z,6.10
2023-03-06T11:19:47.934Z,3.70
2023-03-06T11:20:52.503Z,3.20
2023-03-06T11:21:47.947Z,3.40
2023-03-06T11:22:49.205Z,4.40
2023-03-06T11:23:47.938Z,4.20
2023-03-06T11:24:47.883Z,3.40
2023-03-06T11:25:47.879Z,3.30
2023-03-06T11:26:47.881Z,2.70
2023-03-06T11:27:47.870Z,2.70
2023-03-06T11:28:47.916Z,2.60
2023-03-06T11:29:47.828Z,3.90
2023-03-06T11:30:47.838Z,4.30
2023-03-06T11:31:47.853Z,3.70
2023-03-06T11:32:47.796Z,4.20
2023-03-06T11:33:47.779Z,2.90
2023-03-06T11:34:50.288Z,4.40
2023-03-06T11:35:47.790Z,4.60
2023-03-06T11:36:47.793Z,3.60
2023-03-06T11:37:47.831Z,3.10
2023-03-06T11:38:47.736Z,3.60
2023-03-06T11:39:47.720Z,2.30
2023-03-06T11:40:47.742Z,2.90
2023-03-06T11:41:47.718Z,2.40
2023-03-06T11:42:47.696Z,1.70
2023-03-06T11:43:47.678Z,2.50
2023-03-06T11:44:47.683Z,2.40
2023-03-06T11:45:47.653Z,2.50
2023-03-06T11:46:47.737Z,3.10
2023-03-06T11:47:47.645Z,2.10
2023-03-06T11:48:47.665Z,2.30
2023-03-06T11:49:47.609Z,2.20
2023-03-06T11:50:47.648Z,1.30
2023-03-06T11:51:47.592Z,1.90
2023-03-06T11:52:47.611Z,3.60
2023-03-06T11:53:47.567Z,1.80
2023-03-06T11:54:47.588Z,2.30
2023-03-06T11:55:47.549Z,3.80
2023-03-06T11:56:47.569Z,3.10
2023-03-06T11:57:47.590Z,1.80
2023-03-06T11:58:47.522Z,2.70
2023-03-06T11:59:47.523Z,2.70
2023-03-06T12:00:47.515Z,1.80
2023-03-06T12:01:47.553Z,2.90
2023-03-06T12:02:47.530Z,1.90
2023-03-06T12:03:47.475Z,2.80
2023-03-06T12:04:47.469Z,2.90
2023-03-06T12:05:47.518Z,2.20
2023-03-06T12:06:47.456Z,2.70
2023-03-06T12:07:47.471Z,3.10
2023-03-06T12:08:47.434Z,2.00
2023-03-06T12:09:47.415Z,2.70
2023-03-06T12:10:51.594Z,3.40
2023-03-06T12:11:47.378Z,2.40
2023-03-06T12:12:47.483Z,3.90
2023-03-06T12:13:47.364Z,3.00
2023-03-06T12:14:47.367Z,2.00
2023-03-06T12:15:47.353Z,2.20
2023-03-06T12:16:47.408Z,4.10
2023-03-06T12:17:47.342Z,2.80
2023-03-06T12:18:47.327Z,2.70
2023-03-06T12:19:47.305Z,1.70
2023-03-06T12:20:47.301Z,3.50
2023-03-06T12:21:47.280Z,3.50
2023-03-06T12:22:57.749Z,2.60
2023-03-06T12:23:47.262Z,3.50
2023-03-06T12:24:47.260Z,3.30
2023-03-06T12:25:47.278Z,2.60
2023-03-06T12:26:47.252Z,2.40
2023-03-06T12:27:47.281Z,2.30
2023-03-06T12:28:47.226Z,1.90
2023-03-06T12:29:47.193Z,3.90
2023-03-06T12:30:47.191Z,1.90
2023-03-06T12:31:47.272Z,1.30
2023-03-06T12:32:47.260Z,2.10
2023-03-06T12:33:47.184Z,2.40
2023-03-06T12:34:47.216Z,1.50
2023-03-06T12:35:47.162Z,2.40
2023-03-06T12:36:47.308Z,1.50
2023-03-06T12:37:47.138Z,2.30
2023-03-06T12:38:47.144Z,1.50
2023-03-06T12:39:47.106Z,1.90
2023-03-06T12:40:47.092Z,3.10
2023-03-06T12:41:47.078Z,3.70
2023-03-06T12:42:47.079Z,2.10
2023-03-06T12:43:47.140Z,1.90
2023-03-06T12:44:47.053Z,2.70
2023-03-06T12:45:47.101Z,1.60
2023-03-06T12:46:47.057Z,2.10
2023-03-06T12:47:47.018Z,2.80
2023-03-06T12:48:47.019Z,4.20
2023-03-06T12:49:47.592Z,2.50
2023-03-06T12:50:47.033Z,1.80
2023-03-06T12:51:46.974Z,2.00
2023-03-06T12:52:46.949Z,2.80
2023-03-06T12:53:46.981Z,2.10
2023-03-06T12:54:46.956Z,2.60
2023-03-06T12:55:46.935Z,1.50
2023-03-06T12:56:46.921Z,2.00
2023-03-06T12:57:53.394Z,1.40
2023-03-06T12:58:54.538Z,1.80